createdAt,value
2022-07-25T00:03:30.436Z,975.27
2022-07-25T00:09:53.981Z,975.19
2022-07-25T00:16:20.208Z,975.12
2022-07-25T00:22:52.339Z,975.06
2022-07-25T00:29:15.972Z,974.98
2022-07-25T00:35:38.845Z,974.94
2022-07-25T00:42:01.905Z,974.97
2022-07-25T00:48:34.085Z,974.97
2022-07-25T00:55:06.357Z,974.9
2022-07-25T01:01:40.592Z,974.83
2022-07-25T01:08:18.386Z,974.75
2022-07-25T01:14:49.349Z,974.66
2022-07-25T01:21:16.938Z,974.59
2022-07-25T01:27:44.318Z,974.57
2022-07-25T01:34:11.537Z,974.5
2022-07-25T01:40:37.930Z,974.44
2022-07-25T01:47:07.617Z,974.45
2022-07-25T01:53:36.381Z,974.43
2022-07-25T02:00:04.009Z,974.43
2022-07-25T02:06:38.944Z,974.39
2022-07-25T02:13:08.027Z,974.38
2022-07-25T02:19:40.753Z,974.3
2022-07-25T02:26:10.498Z,974.29
2022-07-25T02:32:40.036Z,974.22
2022-07-25T02:39:06.364Z,974.13
2022-07-25T02:45:36.127Z,974.04
2022-07-25T02:52:00.923Z,974.03
2022-07-25T02:58:35.100Z,973.97
2022-07-25T03:05:00.361Z,973.92
2022-07-25T03:11:30.865Z,973.86
2022-07-25T03:18:06.933Z,973.79
2022-07-25T03:24:36.051Z,973.85
2022-07-25T03:31:12.050Z,973.76
2022-07-25T03:37:31.291Z,973.67
2022-07-25T03:43:56.064Z,973.61
2022-07-25T03:50:24.937Z,973.65
2022-07-25T03:56:58.926Z,973.6
2022-07-25T04:03:20.980Z,973.56
2022-07-25T04:09:48.072Z,973.52
2022-07-25T04:16:23.266Z,973.43
2022-07-25T04:22:56.085Z,973.38
2022-07-25T04:29:24.143Z,973.3
2022-07-25T04:35:54.200Z,973.28
2022-07-25T04:42:16.601Z,973.2
2022-07-25T04:48:54.354Z,973.18
2022-07-25T04:55:26.843Z,973.16
2022-07-25T05:01:48.622Z,973.04
2022-07-25T05:08:14.634Z,973.06
2022-07-25T05:14:43.394Z,973.11
2022-07-25T05:21:11.073Z,973.12
2022-07-25T05:27:45.232Z,973.11
2022-07-25T05:34:07.408Z,973.1
2022-07-25T05:40:34.999Z,973.02
2022-07-25T05:47:06.193Z,973.02
2022-07-25T05:53:40.161Z,973.03
2022-07-25T06:00:06.426Z,973.05
2022-07-25T06:06:37.949Z,972.95
2022-07-25T06:13:01.155Z,972.9
2022-07-25T06:19:24.145Z,972.86
2022-07-25T06:25:52.760Z,972.77
2022-07-25T06:32:35.289Z,972.75
2022-07-25T06:39:08.149Z,972.71
2022-07-25T06:45:34.447Z,972.72
2022-07-25T06:51:55.701Z,972.72
2022-07-25T06:58:26.694Z,972.66
2022-07-25T07:04:53.145Z,972.63
2022-07-25T07:11:24.641Z,972.61
2022-07-25T07:17:49.150Z,972.64
2022-07-25T07:24:23.726Z,972.67
2022-07-25T07:31:16.022Z,972.6
2022-07-25T07:37:49.922Z,972.55
2022-07-25T07:44:19.683Z,972.44
2022-07-25T07:50:46.148Z,972.44
2022-07-25T07:57:15.849Z,972.34
2022-07-25T08:03:41.048Z,972.25
2022-07-25T08:10:15.137Z,972.18
2022-07-25T08:16:44.327Z,972.1
2022-07-25T08:23:08.660Z,972.13
2022-07-25T08:29:33.394Z,972.18
2022-07-25T08:36:16.346Z,972.13
2022-07-25T08:42:55.118Z,972.25
2022-07-25T08:49:38.878Z,972.18
2022-07-25T08:56:22.908Z,972.16
2022-07-25T09:02:52.381Z,972.13
2022-07-25T09:09:33.575Z,972.05
2022-07-25T09:16:15.483Z,972.08
2022-07-25T09:23:23.663Z,972.06
2022-07-25T09:30:11.031Z,972
2022-07-25T09:36:59.911Z,971.96
2022-07-25T09:43:46.659Z,972.04
2022-07-25T09:50:26.825Z,972.06
2022-07-25T09:57:12.933Z,972.09
2022-07-25T10:03:47.793Z,972.11
2022-07-25T10:10:35.843Z,972.02
2022-07-25T10:17:36.925Z,971.95
2022-07-25T10:24:39.640Z,971.91
2022-07-25T10:31:31.546Z,971.9
2022-07-25T10:38:06.340Z,971.92
2022-07-25T10:44:56.967Z,971.91
2022-07-25T10:51:52.534Z,971.97
2022-07-25T10:58:56.414Z,972.12
2022-07-25T11:05:37.706Z,972.13
2022-07-25T11:13:01.356Z,972.07
2022-07-25T11:19:53.355Z,972.03
2022-07-25T11:26:38.559Z,971.9
2022-07-25T11:33:18.503Z,972.04
2022-07-25T11:40:08.805Z,972.04
2022-07-25T11:47:01.645Z,972.05
2022-07-25T11:53:43.855Z,971.95
2022-07-25T12:00:20.791Z,971.87
2022-07-25T12:07:06.183Z,971.81
2022-07-25T12:14:03.667Z,971.75
2022-07-25T12:20:39.594Z,971.72
2022-07-25T12:27:28.003Z,971.74
2022-07-25T12:34:05.743Z,971.7
2022-07-25T12:40:39.802Z,971.76
2022-07-25T12:47:09.021Z,971.76
2022-07-25T12:53:43.205Z,971.79
2022-07-25T13:00:12.467Z,971.86
2022-07-25T13:06:50.717Z,971.8
2022-07-25T13:13:21.765Z,971.79
2022-07-25T13:19:51.208Z,971.77
2022-07-25T13:26:20.486Z,971.88
2022-07-25T13:32:46.724Z,971.9
2022-07-25T13:39:40.495Z,971.94
2022-07-25T13:46:06.486Z,972
2022-07-25T13:52:39.372Z,971.99
2022-07-25T13:59:06.277Z,972.11
2022-07-25T14:05:36.867Z,972.18
2022-07-25T14:12:03.199Z,972.21
2022-07-25T14:18:40.509Z,972.27
2022-07-25T14:25:09.738Z,972.26
2022-07-25T14:31:37.709Z,972.28
2022-07-25T14:38:05.405Z,972.25
2022-07-25T14:44:31.061Z,972.24
2022-07-25T14:51:05.193Z,972.31
2022-07-25T14:57:35.463Z,972.36
2022-07-25T15:04:17.816Z,972.39
2022-07-25T15:10:45.751Z,972.48
2022-07-25T15:17:06.912Z,972.5
2022-07-25T15:23:39.435Z,972.51
2022-07-25T15:30:10.675Z,972.64
2022-07-25T15:36:44.572Z,972.7
2022-07-25T15:43:18.125Z,972.74
2022-07-25T15:49:46.528Z,972.89
2022-07-25T15:56:15.538Z,972.83
2022-07-25T16:02:44.876Z,972.9
2022-07-25T16:09:08.762Z,973.07
2022-07-25T16:15:41.866Z,973.08
2022-07-25T16:22:16.583Z,973.1
2022-07-25T16:28:40.603Z,973.09
2022-07-25T16:35:02.889Z,973.11
2022-07-25T16:41:33.034Z,973.17
2022-07-25T16:48:09.439Z,973.26
2022-07-25T16:54:32.087Z,973.29
2022-07-25T17:01:01.498Z,973.29
2022-07-25T17:07:30.624Z,973.4
2022-07-25T17:13:55.426Z,973.43
2022-07-25T17:20:22.335Z,973.48
2022-07-25T17:26:48.919Z,973.58
2022-07-25T17:33:20.614Z,973.62
2022-07-25T17:39:49.380Z,973.66
2022-07-25T17:46:16.061Z,973.66
2022-07-25T17:52:43.665Z,973.74
2022-07-25T17:59:25.852Z,973.83
2022-07-25T18:06:00.617Z,973.84
2022-07-25T18:12:34.033Z,973.85
2022-07-25T18:19:00.963Z,974
2022-07-25T18:25:27.531Z,973.97
2022-07-25T18:31:55.114Z,973.9
2022-07-25T18:38:25.996Z,973.93
2022-07-25T18:45:08.017Z,973.96
2022-07-25T18:51:40.912Z,974.12
2022-07-25T18:58:35.065Z,974.05
2022-07-25T19:06:06.188Z,973.9
2022-07-25T19:13:50.576Z,973.79
2022-07-25T19:21:26.077Z,973.84
2022-07-25T19:29:01.363Z,973.94
2022-07-25T19:36:35.685Z,974.08
2022-07-25T19:44:31.331Z,974.19
2022-07-25T19:51:58.335Z,974.3
2022-07-25T19:59:35.972Z,974.43
2022-07-25T20:06:59.086Z,974.53
2022-07-25T20:14:35.424Z,974.57
2022-07-25T20:22:20.312Z,974.64
2022-07-25T20:29:55.908Z,974.67
2022-07-25T20:37:15.655Z,974.69
2022-07-25T20:44:44.306Z,974.76
2022-07-25T20:52:07.115Z,974.83
2022-07-25T20:59:39.085Z,974.93
2022-07-25T21:07:11.822Z,975
2022-07-25T21:14:55.577Z,975.14
2022-07-25T21:22:31.451Z,975.25
2022-07-25T21:30:06.506Z,975.28
2022-07-25T21:37:36.068Z,975.34
2022-07-25T21:45:19.150Z,975.38
2022-07-25T21:52:53.972Z,975.48
2022-07-25T22:00:37.644Z,975.59
2022-07-25T22:08:09.950Z,975.57
2022-07-25T22:15:39.642Z,975.59
2022-07-25T22:22:58.895Z,975.65
2022-07-25T22:29:59.629Z,975.71
2022-07-25T22:36:34.732Z,975.77
2022-07-25T22:43:01.097Z,975.78
2022-07-25T22:49:36.041Z,975.82
2022-07-25T22:56:09.146Z,975.83
2022-07-25T23:02:45.220Z,975.91
2022-07-25T23:09:22.828Z,975.92
2022-07-25T23:15:52.242Z,975.93
2022-07-25T23:22:20.037Z,975.91
2022-07-25T23:28:44.787Z,975.95
2022-07-25T23:35:17.257Z,975.97
2022-07-25T23:41:51.584Z,975.94
2022-07-25T23:48:18.366Z,975.97
2022-07-25T23:54:45.329Z,975.96
